createdAt,value
2023-02-03T00:00:45.540Z,101534.72
2023-02-03T00:03:12.838Z,101520.97
2023-02-03T00:05:41.357Z,101523.38
2023-02-03T00:08:09.258Z,101523.22
2023-02-03T00:10:37.383Z,101525.94
2023-02-03T00:13:06.509Z,101517.50
2023-02-03T00:15:33.543Z,101512.25
2023-02-03T00:18:00.595Z,101517.78
2023-02-03T00:20:28.129Z,101516.81
2023-02-03T00:22:55.269Z,101516.25
2023-02-03T00:25:22.355Z,101505.97
2023-02-03T00:27:49.459Z,101516.19
2023-02-03T00:30:18.914Z,101512.84
2023-02-03T00:32:45.869Z,101513.88
2023-02-03T00:35:15.377Z,101506.22
2023-02-03T00:37:42.312Z,101508.38
2023-02-03T00:40:10.295Z,101508.63
2023-02-03T00:42:40.199Z,101503.66
2023-02-03T00:45:07.745Z,101503.66
2023-02-03T00:47:37.335Z,101499.59
2023-02-03T00:50:06.022Z,101496.41
2023-02-03T00:52:32.983Z,101501.81
2023-02-03T00:54:59.987Z,101486.84
2023-02-03T00:57:27.252Z,101485.84
2023-02-03T00:59:55.030Z,101483.94
2023-02-03T01:02:22.162Z,101488.31
2023-02-03T01:04:49.363Z,101486.34
2023-02-03T01:07:16.714Z,101488.66
2023-02-03T01:09:43.707Z,101491.41
2023-02-03T01:12:10.867Z,101481.53
2023-02-03T01:14:37.817Z,101474.75
2023-02-03T01:17:05.067Z,101475.53
2023-02-03T01:19:32.106Z,101474.97
2023-02-03T01:21:59.092Z,101457.63
2023-02-03T01:24:26.171Z,101449.38
2023-02-03T01:26:53.213Z,101446.91
2023-02-03T01:29:20.134Z,101434.31
2023-02-03T01:31:47.200Z,101429.19
2023-02-03T01:34:16.528Z,101421.81
2023-02-03T01:36:46.843Z,101416.97
2023-02-03T01:39:14.403Z,101408.75
2023-02-03T01:41:41.832Z,101411.81
2023-02-03T01:44:33.682Z,101397.50
2023-02-03T01:47:00.775Z,101401.13
2023-02-03T01:49:32.132Z,101410.19
2023-02-03T01:51:59.485Z,101413.97
2023-02-03T01:54:35.073Z,101402.09
2023-02-03T01:57:10.415Z,101412.75
2023-02-03T01:59:37.458Z,101399.41
2023-02-03T02:02:04.873Z,101395.81
2023-02-03T02:04:43.207Z,101394.66
2023-02-03T02:07:10.274Z,101391.19
2023-02-03T02:09:37.472Z,101378.63
2023-02-03T02:12:04.523Z,101365.00
2023-02-03T02:14:34.123Z,101369.41
2023-02-03T02:17:20.031Z,101357.38
2023-02-03T02:20:01.668Z,101350.28
2023-02-03T02:22:47.179Z,101340.91
2023-02-03T02:25:38.973Z,101327.81
2023-02-03T02:28:11.840Z,101322.63
2023-02-03T02:31:03.796Z,101315.31
2023-02-03T02:33:43.916Z,101317.44
2023-02-03T02:36:48.047Z,101316.19
2023-02-03T02:39:30.173Z,101304.50
2023-02-03T02:42:01.846Z,101305.22
2023-02-03T02:44:44.371Z,101312.91
2023-02-03T02:47:19.111Z,101302.31
2023-02-03T02:50:12.178Z,101303.84
2023-02-03T02:52:41.687Z,101289.41
2023-02-03T02:55:17.202Z,101293.88
2023-02-03T02:57:47.894Z,101289.97
2023-02-03T03:00:15.942Z,101290.75
2023-02-03T03:02:42.907Z,101282.78
2023-02-03T03:05:11.866Z,101293.06
2023-02-03T03:07:45.638Z,101294.75
2023-02-03T03:10:16.030Z,101291.09
2023-02-03T03:12:48.441Z,101297.81
2023-02-03T03:15:24.764Z,101299.72
2023-02-03T03:18:06.021Z,101288.00
2023-02-03T03:20:33.819Z,101285.03
2023-02-03T03:23:02.419Z,101278.75
2023-02-03T03:25:35.535Z,101271.63
2023-02-03T03:28:06.601Z,101273.84
2023-02-03T03:30:36.322Z,101280.00
2023-02-03T03:33:04.797Z,101270.69
2023-02-03T03:35:53.240Z,101257.06
2023-02-03T03:38:35.449Z,101242.59
2023-02-03T03:41:22.753Z,101245.91
2023-02-03T03:43:50.788Z,101242.59
2023-02-03T03:46:22.134Z,101231.72
2023-02-03T03:48:57.266Z,101223.25
2023-02-03T03:51:32.512Z,101219.56
2023-02-03T03:54:04.547Z,101215.00
2023-02-03T03:56:44.885Z,101220.84
2023-02-03T03:59:14.173Z,101214.06
2023-02-03T04:01:42.300Z,101213.53
2023-02-03T04:04:11.608Z,101206.63
2023-02-03T04:06:39.854Z,101200.72
2023-02-03T04:09:07.409Z,101191.63
2023-02-03T04:11:52.986Z,101185.66
2023-02-03T04:14:22.178Z,101184.25
2023-02-03T04:16:49.296Z,101180.50
2023-02-03T04:19:16.292Z,101179.34
2023-02-03T04:21:43.296Z,101181.16
2023-02-03T04:24:10.423Z,101174.03
2023-02-03T04:26:39.930Z,101168.66
2023-02-03T04:29:07.161Z,101166.50
2023-02-03T04:31:34.235Z,101161.22
2023-02-03T04:34:01.272Z,101158.97
2023-02-03T04:36:28.290Z,101159.88
2023-02-03T04:38:55.200Z,101154.66
2023-02-03T04:41:22.159Z,101154.97
2023-02-03T04:43:49.437Z,101148.16
2023-02-03T04:46:16.627Z,101154.03
2023-02-03T04:48:43.624Z,101141.81
2023-02-03T04:51:10.630Z,101138.41
2023-02-03T04:53:37.727Z,101145.47
2023-02-03T04:56:07.685Z,101141.19
2023-02-03T04:58:34.671Z,101143.25
2023-02-03T05:01:10.110Z,101128.44
2023-02-03T05:03:39.873Z,101125.69
2023-02-03T05:06:06.970Z,101118.25
2023-02-03T05:08:34.089Z,101109.19
2023-02-03T05:11:02.373Z,101112.38
2023-02-03T05:13:30.069Z,101102.13
2023-02-03T05:15:57.097Z,101097.97
2023-02-03T05:18:25.421Z,101096.56
2023-02-03T05:20:52.421Z,101079.03
2023-02-03T05:23:19.385Z,101068.53
2023-02-03T05:25:46.447Z,101057.75
2023-02-03T05:28:13.497Z,101061.66
2023-02-03T05:30:40.623Z,101048.19
2023-02-03T05:33:07.682Z,101043.72
2023-02-03T05:35:34.729Z,101039.13
2023-02-03T05:38:06.551Z,101038.69
2023-02-03T05:41:05.608Z,101037.34
2023-02-03T05:43:32.719Z,101020.50
2023-02-03T05:46:04.824Z,101011.22
2023-02-03T05:48:32.353Z,101001.63
2023-02-03T05:51:01.911Z,100997.72
2023-02-03T05:53:31.057Z,100986.69
2023-02-03T05:55:58.047Z,100977.38
2023-02-03T05:58:25.091Z,100972.38
2023-02-03T06:00:52.266Z,100964.19
2023-02-03T06:03:20.294Z,100962.66
2023-02-03T06:05:47.338Z,100957.56
2023-02-03T06:08:14.535Z,100956.25
2023-02-03T06:10:41.546Z,100945.38
2023-02-03T06:13:16.439Z,100949.72
2023-02-03T06:15:44.343Z,100957.00
2023-02-03T06:18:11.491Z,100943.84
2023-02-03T06:20:38.562Z,100937.41
2023-02-03T06:23:05.698Z,100931.53
2023-02-03T06:25:33.281Z,100929.16
2023-02-03T06:28:00.473Z,100928.09
2023-02-03T06:30:28.017Z,100913.94
2023-02-03T06:32:55.397Z,100916.38
2023-02-03T06:35:22.562Z,100910.56
2023-02-03T06:37:49.795Z,100902.31
2023-02-03T06:40:17.051Z,100902.75
2023-02-03T06:42:48.293Z,100889.22
2023-02-03T06:45:15.775Z,100880.75
2023-02-03T06:47:44.260Z,100870.94
2023-02-03T06:50:14.136Z,100866.59
2023-02-03T06:52:43.316Z,100863.47
2023-02-03T06:55:12.616Z,100858.78
2023-02-03T06:57:47.034Z,100855.75
2023-02-03T07:00:18.986Z,100849.16
2023-02-03T07:02:54.260Z,100847.03
2023-02-03T07:05:22.248Z,100832.28
2023-02-03T07:07:49.612Z,100833.19
2023-02-03T07:10:16.701Z,100827.88
2023-02-03T07:12:44.251Z,100824.50
2023-02-03T07:15:12.439Z,100809.97
2023-02-03T07:17:39.591Z,100816.63
2023-02-03T07:20:07.178Z,100803.28
2023-02-03T07:22:34.375Z,100799.09
2023-02-03T07:25:01.487Z,100790.63
2023-02-03T07:27:30.731Z,100791.69
2023-02-03T07:29:57.654Z,100776.06
2023-02-03T07:32:24.691Z,100768.25
2023-02-03T07:34:51.675Z,100756.28
2023-02-03T07:37:18.696Z,100757.56
2023-02-03T07:39:46.224Z,100744.75
2023-02-03T07:42:13.308Z,100746.38
2023-02-03T07:44:40.467Z,100734.81
2023-02-03T07:47:07.518Z,100734.50
2023-02-03T07:49:34.541Z,100729.50
2023-02-03T07:52:04.091Z,100717.66
2023-02-03T07:54:33.672Z,100718.63
2023-02-03T07:57:00.749Z,100704.00
2023-02-03T07:59:27.822Z,100698.63
2023-02-03T08:01:56.424Z,100702.53
2023-02-03T08:04:24.488Z,100693.19
2023-02-03T08:06:51.539Z,100690.31
2023-02-03T08:09:18.623Z,100677.00
2023-02-03T08:11:45.707Z,100672.22
2023-02-03T08:14:44.160Z,100657.03
2023-02-03T08:17:13.461Z,100642.41
2023-02-03T08:19:43.371Z,100631.00
2023-02-03T08:22:16.070Z,100631.75
2023-02-03T08:24:45.960Z,100615.19
2023-02-03T08:27:14.299Z,100611.56
2023-02-03T08:29:41.481Z,100597.81
2023-02-03T08:32:16.355Z,100582.94
2023-02-03T08:34:43.796Z,100578.41
2023-02-03T08:37:12.108Z,100564.63
2023-02-03T08:39:39.646Z,100572.03
2023-02-03T08:42:07.293Z,100564.59
2023-02-03T08:44:34.671Z,100554.03
2023-02-03T08:47:02.357Z,100544.88
2023-02-03T08:49:30.281Z,100541.88
2023-02-03T08:51:58.318Z,100527.00
2023-02-03T08:54:26.244Z,100514.78
2023-02-03T08:56:53.309Z,100509.91
2023-02-03T08:59:20.372Z,100488.25
2023-02-03T09:01:48.648Z,100497.72
2023-02-03T09:04:24.641Z,100491.69
2023-02-03T09:06:54.556Z,100482.75
2023-02-03T09:09:21.965Z,100461.38
2023-02-03T09:11:49.192Z,100452.50
2023-02-03T09:14:16.187Z,100448.63
2023-02-03T09:16:45.370Z,100441.97
2023-02-03T09:19:13.560Z,100434.78
2023-02-03T09:21:45.302Z,100426.16
2023-02-03T09:24:18.691Z,100416.06
2023-02-03T09:26:45.744Z,100402.06
2023-02-03T09:29:15.072Z,100396.72
2023-02-03T09:31:42.062Z,100385.44
2023-02-03T09:34:09.261Z,100375.88
2023-02-03T09:36:37.614Z,100368.53
2023-02-03T09:39:04.687Z,100364.03
2023-02-03T09:41:52.787Z,100361.56
2023-02-03T09:44:35.300Z,100360.56
2023-02-03T09:47:09.530Z,100341.56
2023-02-03T09:49:50.621Z,100328.13
2023-02-03T09:52:25.842Z,100327.28
2023-02-03T09:55:05.019Z,100327.69
2023-02-03T09:57:37.078Z,100315.72
2023-02-03T10:00:27.441Z,100318.81
2023-02-03T10:03:12.878Z,100290.72
2023-02-03T10:05:54.918Z,100267.28
2023-02-03T10:08:28.792Z,100232.03
2023-02-03T10:11:28.248Z,100236.50
2023-02-03T10:14:13.823Z,100232.91
2023-02-03T10:17:11.707Z,100219.97
2023-02-03T10:20:00.156Z,100209.31
2023-02-03T10:22:29.165Z,100183.75
2023-02-03T10:25:30.901Z,100168.44
2023-02-03T10:28:01.546Z,100176.91
2023-02-03T10:30:34.911Z,100158.84
2023-02-03T10:33:14.618Z,100141.88
2023-02-03T10:35:56.440Z,100143.75
2023-02-03T10:38:39.418Z,100128.69
2023-02-03T10:41:06.574Z,100122.53
2023-02-03T10:43:51.474Z,100111.25
2023-02-03T10:46:29.798Z,100092.06
2023-02-03T10:48:57.211Z,100094.53
2023-02-03T10:51:26.575Z,100071.72
2023-02-03T10:53:53.758Z,100076.34
2023-02-03T10:56:36.865Z,100066.09
2023-02-03T10:59:04.449Z,100063.66
2023-02-03T11:01:31.319Z,100041.47
2023-02-03T11:04:01.944Z,100038.38
2023-02-03T11:06:29.042Z,100018.56
2023-02-03T11:08:56.327Z,100009.22
2023-02-03T11:11:34.213Z,100001.91
2023-02-03T11:14:13.145Z,99968.88
2023-02-03T11:16:41.173Z,99971.41
2023-02-03T11:19:20.595Z,99958.44
2023-02-03T11:21:50.502Z,99964.75
2023-02-03T11:24:25.964Z,99941.53
2023-02-03T11:26:55.890Z,99940.97
2023-02-03T11:29:31.460Z,99916.63
2023-02-03T11:32:00.547Z,99906.00
2023-02-03T11:34:33.191Z,99894.72
2023-02-03T11:37:30.017Z,99901.59
2023-02-03T11:40:11.088Z,99889.47
2023-02-03T11:42:44.031Z,99897.91
2023-02-03T11:45:15.776Z,99889.66
2023-02-03T11:47:56.231Z,99869.25
2023-02-03T11:50:29.398Z,99865.44
2023-02-03T11:52:59.853Z,99855.22
2023-02-03T11:55:46.006Z,99833.31
2023-02-03T11:58:19.095Z,99845.34
2023-02-03T12:01:08.101Z,99828.63
2023-02-03T12:03:34.947Z,99820.81
2023-02-03T12:06:23.107Z,99818.09
2023-02-03T12:09:46.777Z,99804.84
2023-02-03T12:12:31.182Z,99797.50
2023-02-03T12:15:00.960Z,99800.09
2023-02-03T12:17:33.987Z,99792.56
2023-02-03T12:20:07.140Z,99778.22
2023-02-03T12:22:48.532Z,99785.25
2023-02-03T12:26:03.328Z,99768.81
2023-02-03T12:28:59.143Z,99761.91
2023-02-03T12:31:35.520Z,99752.78
2023-02-03T12:34:21.126Z,99754.03
2023-02-03T12:37:07.604Z,99751.81
2023-02-03T12:39:48.316Z,99733.59
2023-02-03T12:42:23.580Z,99732.88
2023-02-03T12:45:08.888Z,99735.72
2023-02-03T12:47:41.869Z,99720.72
2023-02-03T12:50:18.557Z,99719.75
2023-02-03T12:53:00.757Z,99733.28
2023-02-03T12:55:39.633Z,99713.13
2023-02-03T12:58:10.399Z,99714.88
2023-02-03T13:00:48.332Z,99710.53
2023-02-03T13:03:18.963Z,99713.81
2023-02-03T13:06:19.931Z,99702.16
2023-02-03T13:09:12.987Z,99710.06
2023-02-03T13:12:12.585Z,99694.63
2023-02-03T13:14:46.609Z,99682.19
2023-02-03T13:17:30.987Z,99680.09
2023-02-03T13:20:13.998Z,99677.63
2023-02-03T13:22:41.030Z,99678.25
2023-02-03T13:25:18.969Z,99671.81
2023-02-03T13:28:14.658Z,99674.28
2023-02-03T13:31:19.568Z,99665.06
2023-02-03T13:34:17.029Z,99659.78
2023-02-03T13:37:05.535Z,99656.66
2023-02-03T13:40:01.815Z,99654.38
2023-02-03T13:42:31.889Z,99658.09
2023-02-03T13:45:17.859Z,99653.72
2023-02-03T13:47:50.794Z,99647.91
2023-02-03T13:50:26.450Z,99650.53
2023-02-03T13:53:15.099Z,99645.19
2023-02-03T13:56:02.585Z,99642.19
2023-02-03T13:58:32.326Z,99649.25
2023-02-03T14:01:19.453Z,99646.19
2023-02-03T14:03:46.977Z,99655.91
2023-02-03T14:06:49.736Z,99653.81
2023-02-03T14:09:31.763Z,99646.75
2023-02-03T14:12:22.159Z,99648.84
2023-02-03T14:14:52.012Z,99648.88
2023-02-03T14:17:34.205Z,99653.22
2023-02-03T14:20:21.571Z,99647.38
2023-02-03T14:22:48.554Z,99649.53
2023-02-03T14:25:18.239Z,99657.25
2023-02-03T14:27:45.421Z,99655.88
2023-02-03T14:30:14.724Z,99659.19
2023-02-03T14:32:48.747Z,99662.94
2023-02-03T14:35:20.523Z,99653.78
2023-02-03T14:37:55.989Z,99661.34
2023-02-03T14:40:48.141Z,99663.97
2023-02-03T14:43:26.986Z,99668.00
2023-02-03T14:46:00.675Z,99675.31
2023-02-03T14:48:36.624Z,99679.84
2023-02-03T14:51:09.329Z,99682.47
2023-02-03T14:54:14.075Z,99683.63
2023-02-03T14:57:18.901Z,99686.19
2023-02-03T14:59:54.791Z,99677.06
2023-02-03T15:02:27.264Z,99691.06
2023-02-03T15:05:17.201Z,99690.47
2023-02-03T15:07:49.736Z,99690.41
2023-02-03T15:10:25.471Z,99699.31
2023-02-03T15:12:58.274Z,99688.16
2023-02-03T15:15:30.010Z,99699.56
2023-02-03T15:17:59.672Z,99698.69
2023-02-03T15:20:44.175Z,99710.81
2023-02-03T15:23:23.182Z,99703.06
2023-02-03T15:26:01.810Z,99705.59
2023-02-03T15:28:30.062Z,99712.06
2023-02-03T15:31:16.737Z,99699.75
2023-02-03T15:33:44.726Z,99710.22
2023-02-03T15:36:24.288Z,62747.53
2023-02-03T15:39:33.882Z,62747.53
2023-02-03T15:42:01.255Z,62747.53
2023-02-03T15:44:40.050Z,62747.53
2023-02-03T15:47:16.645Z,62747.53
2023-02-03T15:49:44.055Z,62747.53
2023-02-03T15:52:17.103Z,62747.53
2023-02-03T15:54:53.488Z,62747.53
2023-02-03T15:57:28.237Z,62747.53
2023-02-03T16:00:08.513Z,99710.22
2023-02-03T16:02:42.997Z,99744.34
2023-02-03T16:05:27.271Z,99747.84
2023-02-03T16:07:54.395Z,99742.97
2023-02-03T16:10:31.247Z,99742.97
2023-02-03T16:14:33.741Z,99759.38
2023-02-03T16:17:06.007Z,99766.69
2023-02-03T16:19:38.494Z,99772.00
2023-02-03T16:22:25.532Z,99769.28
2023-02-03T16:24:52.566Z,99777.63
2023-02-03T16:27:20.457Z,99780.38
2023-02-03T16:30:06.099Z,99781.94
2023-02-03T16:32:51.734Z,99791.34
2023-02-03T16:35:37.401Z,99798.34
2023-02-03T16:38:36.803Z,99791.31
2023-02-03T16:41:22.899Z,99796.41
2023-02-03T16:44:08.394Z,99793.25
2023-02-03T16:46:54.026Z,99801.03
2023-02-03T16:49:39.660Z,99793.53
2023-02-03T16:52:08.604Z,99810.28
2023-02-03T16:54:35.552Z,99815.53
2023-02-03T16:57:02.502Z,99817.47
2023-02-03T16:59:29.450Z,99823.53
2023-02-03T17:01:56.485Z,99827.72
2023-02-03T17:04:23.495Z,99827.91
2023-02-03T17:06:51.386Z,99837.06
2023-02-03T17:09:23.548Z,99831.16
2023-02-03T17:11:51.130Z,99833.50
2023-02-03T17:14:18.105Z,99837.84
2023-02-03T17:16:45.212Z,99830.84
2023-02-03T17:19:12.890Z,99840.00
2023-02-03T17:21:39.877Z,99848.59
2023-02-03T17:24:07.766Z,99857.19
2023-02-03T17:26:35.131Z,99866.28
2023-02-03T17:29:03.569Z,99866.09
2023-02-03T17:31:31.638Z,99871.44
2023-02-03T17:33:59.245Z,99872.47
2023-02-03T17:36:26.607Z,99876.59
2023-02-03T17:55:25.064Z,99897.66
2023-02-03T17:57:52.279Z,99896.31
2023-02-03T18:00:19.654Z,99900.88
2023-02-03T18:02:51.205Z,62747.53
2023-02-03T18:05:18.811Z,62747.53
2023-02-03T18:07:45.899Z,62747.53
2023-02-03T18:10:13.068Z,62747.53
2023-02-03T18:12:40.020Z,62747.53
2023-02-03T18:15:07.330Z,62747.53
2023-02-03T18:17:36.172Z,62747.53
2023-02-03T18:20:04.063Z,62747.53
2023-02-03T18:22:31.097Z,62747.53
2023-02-03T18:24:58.369Z,62747.53
2023-02-03T18:27:25.398Z,62747.53
2023-02-03T18:29:54.731Z,62747.53
2023-02-03T18:32:21.877Z,62747.53
2023-02-03T18:34:48.836Z,62747.53
2023-02-03T18:37:15.849Z,62747.53
2023-02-03T18:39:42.864Z,62747.53
2023-02-03T18:42:10.155Z,62747.53
2023-02-03T18:44:37.140Z,62747.53
2023-02-03T18:47:07.718Z,62747.53
2023-02-03T18:49:35.882Z,62747.53
2023-02-03T18:52:03.950Z,62747.53
2023-02-03T18:54:31.045Z,62747.53
2023-02-03T18:57:00.448Z,62747.53
2023-02-03T18:59:27.538Z,62747.53
2023-02-03T19:01:54.620Z,62747.53
2023-02-03T19:04:21.611Z,62747.53
2023-02-03T19:06:52.659Z,62747.53
2023-02-03T19:09:22.221Z,62747.53
2023-02-03T19:11:49.529Z,62747.53
2023-02-03T19:14:16.792Z,62747.53
2023-02-03T19:16:44.092Z,62747.53
2023-02-03T19:19:13.361Z,62747.53
2023-02-03T19:21:40.326Z,62747.53
2023-02-03T19:24:07.545Z,62747.53
2023-02-03T19:26:35.103Z,62747.53
2023-02-03T19:29:02.132Z,62747.53
2023-02-03T19:31:31.569Z,62747.53
2023-02-03T19:33:59.915Z,62747.53
2023-02-03T19:36:30.969Z,62747.53
2023-02-03T19:38:58.128Z,62747.53
2023-02-03T19:41:27.695Z,62747.53
2023-02-03T19:43:54.721Z,62747.53
2023-02-03T19:46:22.255Z,62747.53
2023-02-03T19:48:50.532Z,62747.53
2023-02-03T19:51:17.844Z,62747.53
2023-02-03T19:53:44.856Z,62747.53
2023-02-03T19:56:13.852Z,62747.53
2023-02-03T19:58:41.130Z,62747.53
2023-02-03T20:01:08.832Z,62747.53
2023-02-03T20:03:35.804Z,62747.53
2023-02-03T20:06:03.905Z,62747.53
2023-02-03T20:08:30.954Z,62747.53
2023-02-03T20:10:58.081Z,62747.53
2023-02-03T20:13:25.198Z,62747.53
2023-02-03T20:15:52.202Z,62747.53
2023-02-03T20:18:19.554Z,62747.53
2023-02-03T20:20:53.958Z,62747.53
2023-02-03T20:23:21.743Z,62747.53
2023-02-03T20:25:50.416Z,62747.53
2023-02-03T20:28:17.857Z,62747.53
2023-02-03T20:30:45.602Z,62747.53
2023-02-03T20:33:12.869Z,62747.53
2023-02-03T20:35:39.885Z,62747.53
2023-02-03T20:38:07.049Z,62747.53
2023-02-03T20:40:36.433Z,62747.53
2023-02-03T20:43:13.226Z,62747.53
2023-02-03T20:45:40.631Z,62747.53
2023-02-03T20:48:14.011Z,62747.53
2023-02-03T20:50:47.153Z,62747.53
2023-02-03T20:53:20.253Z,62747.53
